sensor_id;sensor_type;location;lat;lon;timestamp;P1;durP1;ratioP1;P2;durP2;ratioP2
16854;SDS011;8543;54.522;18.550;2023-05-16T00:01:13;5.90;;;4.60;;
16854;SDS011;8543;54.522;18.550;2023-05-16T00:03:40;7.20;;;4.30;;
16854;SDS011;8543;54.522;18.550;2023-05-16T00:06:07;5.10;;;3.90;;
16854;SDS011;8543;54.522;18.550;2023-05-16T00:08:33;5.80;;;3.90;;
16854;SDS011;8543;54.522;18.550;2023-05-16T00:10:58;5.50;;;4.10;;
16854;SDS011;8543;54.522;18.550;2023-05-16T00:13:24;5.20;;;4.00;;
16854;SDS011;8543;54.522;18.550;2023-05-16T00:15:50;5.30;;;4.10;;
16854;SDS011;8543;54.522;18.550;2023-05-16T00:18:17;4.90;;;3.80;;
16854;SDS011;8543;54.522;18.550;2023-05-16T00:20:43;4.70;;;3.80;;
16854;SDS011;8543;54.522;18.550;2023-05-16T00:23:09;5.90;;;3.90;;
16854;SDS011;8543;54.522;18.550;2023-05-16T00:25:34;5.10;;;4.10;;
16854;SDS011;8543;54.522;18.550;2023-05-16T00:28:00;6.50;;;4.60;;
16854;SDS011;8543;54.522;18.550;2023-05-16T00:30:26;7.20;;;4.70;;
16854;SDS011;8543;54.522;18.550;2023-05-16T00:32:53;6.20;;;4.40;;
16854;SDS011;8543;54.522;18.550;2023-05-16T00:35:19;5.20;;;4.10;;
16854;SDS011;8543;54.522;18.550;2023-05-16T00:37:44;5.30;;;3.70;;
16854;SDS011;8543;54.522;18.550;2023-05-16T00:40:10;6.10;;;4.10;;
16854;SDS011;8543;54.522;18.550;2023-05-16T00:42:35;5.30;;;4.00;;
16854;SDS011;8543;54.522;18.550;2023-05-16T00:45:03;5.20;;;4.10;;
16854;SDS011;8543;54.522;18.550;2023-05-16T00:47:30;4.50;;;3.70;;
16854;SDS011;8543;54.522;18.550;2023-05-16T00:49:56;5.20;;;3.90;;
16854;SDS011;8543;54.522;18.550;2023-05-16T00:52:21;4.90;;;3.70;;
16854;SDS011;8543;54.522;18.550;2023-05-16T00:54:47;5.90;;;4.10;;
16854;SDS011;8543;54.522;18.550;2023-05-16T00:57:12;5.30;;;4.30;;
16854;SDS011;8543;54.522;18.550;2023-05-16T00:59:38;5.40;;;4.10;;
16854;SDS011;8543;54.522;18.550;2023-05-16T01:02:04;6.20;;;4.50;;
16854;SDS011;8543;54.522;18.550;2023-05-16T01:04:29;6.70;;;4.40;;
16854;SDS011;8543;54.522;18.550;2023-05-16T01:06:56;5.40;;;3.70;;
16854;SDS011;8543;54.522;18.550;2023-05-16T01:09:22;5.30;;;3.90;;
16854;SDS011;8543;54.522;18.550;2023-05-16T01:11:52;5.30;;;4.00;;
16854;SDS011;8543;54.522;18.550;2023-05-16T01:16:58;5.00;;;3.60;;
16854;SDS011;8543;54.522;18.550;2023-05-16T01:22:14;5.40;;;4.50;;
16854;SDS011;8543;54.522;18.550;2023-05-16T01:27:26;5.10;;;4.40;;
16854;SDS011;8543;54.522;18.550;2023-05-16T01:29:56;5.60;;;4.30;;
16854;SDS011;8543;54.522;18.550;2023-05-16T01:32:22;5.40;;;4.10;;
16854;SDS011;8543;54.522;18.550;2023-05-16T01:34:49;5.30;;;4.60;;
16854;SDS011;8543;54.522;18.550;2023-05-16T01:37:18;5.70;;;4.50;;
16854;SDS011;8543;54.522;18.550;2023-05-16T01:39:55;6.40;;;4.60;;
16854;SDS011;8543;54.522;18.550;2023-05-16T01:42:25;5.40;;;4.60;;
16854;SDS011;8543;54.522;18.550;2023-05-16T01:47:29;6.60;;;5.00;;
16854;SDS011;8543;54.522;18.550;2023-05-16T01:50:00;6.80;;;5.20;;
16854;SDS011;8543;54.522;18.550;2023-05-16T01:52:31;6.10;;;5.20;;
16854;SDS011;8543;54.522;18.550;2023-05-16T01:55:23;6.30;;;4.80;;
16854;SDS011;8543;54.522;18.550;2023-05-16T01:57:58;5.90;;;4.60;;
16854;SDS011;8543;54.522;18.550;2023-05-16T02:00:26;5.30;;;4.70;;
16854;SDS011;8543;54.522;18.550;2023-05-16T02:02:51;5.80;;;4.30;;
16854;SDS011;8543;54.522;18.550;2023-05-16T02:05:17;5.50;;;4.30;;
16854;SDS011;8543;54.522;18.550;2023-05-16T02:07:42;6.70;;;4.80;;
16854;SDS011;8543;54.522;18.550;2023-05-16T02:10:08;5.50;;;4.50;;
16854;SDS011;8543;54.522;18.550;2023-05-16T02:12:35;6.20;;;5.20;;
16854;SDS011;8543;54.522;18.550;2023-05-16T02:15:01;6.10;;;5.20;;
16854;SDS011;8543;54.522;18.550;2023-05-16T02:17:26;6.50;;;5.50;;
16854;SDS011;8543;54.522;18.550;2023-05-16T02:19:52;6.40;;;5.30;;
16854;SDS011;8543;54.522;18.550;2023-05-16T02:22:17;5.90;;;5.30;;
16854;SDS011;8543;54.522;18.550;2023-05-16T02:24:42;6.60;;;5.30;;
16854;SDS011;8543;54.522;18.550;2023-05-16T02:27:08;7.20;;;5.90;;
16854;SDS011;8543;54.522;18.550;2023-05-16T02:29:34;6.80;;;5.30;;
16854;SDS011;8543;54.522;18.550;2023-05-16T02:31:59;6.40;;;5.40;;
16854;SDS011;8543;54.522;18.550;2023-05-16T02:34:24;7.10;;;5.30;;
16854;SDS011;8543;54.522;18.550;2023-05-16T02:36:50;6.70;;;5.60;;
16854;SDS011;8543;54.522;18.550;2023-05-16T02:39:15;7.70;;;6.20;;
16854;SDS011;8543;54.522;18.550;2023-05-16T02:41:41;6.90;;;6.00;;
16854;SDS011;8543;54.522;18.550;2023-05-16T02:44:07;7.10;;;5.50;;
16854;SDS011;8543;54.522;18.550;2023-05-16T02:46:33;6.50;;;5.40;;
16854;SDS011;8543;54.522;18.550;2023-05-16T02:48:58;6.30;;;5.30;;
16854;SDS011;8543;54.522;18.550;2023-05-16T02:51:25;6.70;;;5.30;;
16854;SDS011;8543;54.522;18.550;2023-05-16T02:53:51;6.80;;;5.50;;
16854;SDS011;8543;54.522;18.550;2023-05-16T02:56:17;7.10;;;6.30;;
16854;SDS011;8543;54.522;18.550;2023-05-16T02:58:45;7.70;;;6.10;;
16854;SDS011;8543;54.522;18.550;2023-05-16T03:01:12;7.10;;;5.90;;
16854;SDS011;8543;54.522;18.550;2023-05-16T03:03:37;8.10;;;7.00;;
16854;SDS011;8543;54.522;18.550;2023-05-16T03:06:03;8.00;;;5.90;;
16854;SDS011;8543;54.522;18.550;2023-05-16T03:08:28;7.10;;;5.90;;
16854;SDS011;8543;54.522;18.550;2023-05-16T03:10:54;7.30;;;6.20;;
16854;SDS011;8543;54.522;18.550;2023-05-16T03:13:19;6.90;;;5.90;;
16854;SDS011;8543;54.522;18.550;2023-05-16T03:15:45;7.30;;;6.00;;
16854;SDS011;8543;54.522;18.550;2023-05-16T03:18:10;7.30;;;6.40;;
16854;SDS011;8543;54.522;18.550;2023-05-16T03:20:36;6.90;;;5.70;;
16854;SDS011;8543;54.522;18.550;2023-05-16T03:23:02;7.60;;;6.20;;
16854;SDS011;8543;54.522;18.550;2023-05-16T03:25:31;8.40;;;5.90;;
16854;SDS011;8543;54.522;18.550;2023-05-16T03:27:57;7.80;;;7.00;;
16854;SDS011;8543;54.522;18.550;2023-05-16T03:30:22;7.40;;;6.60;;
16854;SDS011;8543;54.522;18.550;2023-05-16T03:32:48;6.50;;;5.80;;
16854;SDS011;8543;54.522;18.550;2023-05-16T03:35:14;6.60;;;5.70;;
16854;SDS011;8543;54.522;18.550;2023-05-16T03:37:39;6.60;;;5.50;;
16854;SDS011;8543;54.522;18.550;2023-05-16T03:40:05;6.50;;;5.50;;
16854;SDS011;8543;54.522;18.550;2023-05-16T03:42:31;6.50;;;5.30;;
16854;SDS011;8543;54.522;18.550;2023-05-16T03:44:57;6.90;;;5.60;;
16854;SDS011;8543;54.522;18.550;2023-05-16T03:47:22;5.60;;;4.30;;
16854;SDS011;8543;54.522;18.550;2023-05-16T03:49:47;5.00;;;3.70;;
16854;SDS011;8543;54.522;18.550;2023-05-16T03:52:13;5.00;;;3.90;;
16854;SDS011;8543;54.522;18.550;2023-05-16T03:54:39;4.40;;;3.50;;
16854;SDS011;8543;54.522;18.550;2023-05-16T03:57:04;7.40;;;3.60;;
16854;SDS011;8543;54.522;18.550;2023-05-16T03:59:30;3.80;;;2.70;;
16854;SDS011;8543;54.522;18.550;2023-05-16T04:01:55;3.70;;;2.70;;
16854;SDS011;8543;54.522;18.550;2023-05-16T04:04:21;4.20;;;2.70;;
16854;SDS011;8543;54.522;18.550;2023-05-16T04:06:46;3.50;;;2.70;;
16854;SDS011;8543;54.522;18.550;2023-05-16T04:09:12;4.10;;;2.50;;
16854;SDS011;8543;54.522;18.550;2023-05-16T04:11:37;3.50;;;2.50;;
16854;SDS011;8543;54.522;18.550;2023-05-16T04:14:03;3.00;;;2.20;;
16854;SDS011;8543;54.522;18.550;2023-05-16T04:16:28;3.30;;;2.50;;
16854;SDS011;8543;54.522;18.550;2023-05-16T04:18:54;3.70;;;2.50;;
16854;SDS011;8543;54.522;18.550;2023-05-16T04:21:20;4.00;;;2.90;;
16854;SDS011;8543;54.522;18.550;2023-05-16T04:23:46;4.60;;;2.80;;
16854;SDS011;8543;54.522;18.550;2023-05-16T04:26:11;3.70;;;2.60;;
16854;SDS011;8543;54.522;18.550;2023-05-16T04:28:38;4.00;;;2.80;;
16854;SDS011;8543;54.522;18.550;2023-05-16T04:31:04;3.60;;;2.70;;
16854;SDS011;8543;54.522;18.550;2023-05-16T04:33:30;4.30;;;3.10;;
16854;SDS011;8543;54.522;18.550;2023-05-16T04:35:55;4.70;;;3.20;;
16854;SDS011;8543;54.522;18.550;2023-05-16T04:38:22;4.30;;;3.30;;
16854;SDS011;8543;54.522;18.550;2023-05-16T04:40:48;4.60;;;3.30;;
16854;SDS011;8543;54.522;18.550;2023-05-16T04:43:15;3.30;;;2.60;;
16854;SDS011;8543;54.522;18.550;2023-05-16T04:45:40;3.80;;;2.60;;
16854;SDS011;8543;54.522;18.550;2023-05-16T04:48:06;3.70;;;2.30;;
16854;SDS011;8543;54.522;18.550;2023-05-16T04:50:32;2.80;;;2.10;;
16854;SDS011;8543;54.522;18.550;2023-05-16T04:52:57;3.20;;;2.10;;
16854;SDS011;8543;54.522;18.550;2023-05-16T04:55:23;3.90;;;2.10;;
16854;SDS011;8543;54.522;18.550;2023-05-16T04:57:49;2.60;;;2.00;;
16854;SDS011;8543;54.522;18.550;2023-05-16T05:00:14;3.10;;;2.10;;
16854;SDS011;8543;54.522;18.550;2023-05-16T05:02:40;3.10;;;2.10;;
16854;SDS011;8543;54.522;18.550;2023-05-16T05:05:06;2.80;;;1.90;;
16854;SDS011;8543;54.522;18.550;2023-05-16T05:07:32;3.00;;;2.20;;
16854;SDS011;8543;54.522;18.550;2023-05-16T05:09:57;3.00;;;2.10;;
16854;SDS011;8543;54.522;18.550;2023-05-16T05:12:23;3.10;;;2.20;;
16854;SDS011;8543;54.522;18.550;2023-05-16T05:14:49;3.20;;;2.10;;
16854;SDS011;8543;54.522;18.550;2023-05-16T05:17:15;2.60;;;1.90;;
16854;SDS011;8543;54.522;18.550;2023-05-16T05:19:41;2.70;;;1.90;;
16854;SDS011;8543;54.522;18.550;2023-05-16T05:22:07;2.20;;;1.50;;
16854;SDS011;8543;54.522;18.550;2023-05-16T05:24:32;2.90;;;1.70;;
16854;SDS011;8543;54.522;18.550;2023-05-16T05:26:57;3.00;;;1.70;;
16854;SDS011;8543;54.522;18.550;2023-05-16T05:29:23;2.50;;;1.60;;
16854;SDS011;8543;54.522;18.550;2023-05-16T05:31:48;1.80;;;1.40;;
16854;SDS011;8543;54.522;18.550;2023-05-16T05:34:14;2.00;;;1.60;;
16854;SDS011;8543;54.522;18.550;2023-05-16T05:36:39;2.70;;;1.60;;
16854;SDS011;8543;54.522;18.550;2023-05-16T05:39:05;2.60;;;1.60;;
16854;SDS011;8543;54.522;18.550;2023-05-16T05:41:30;1.70;;;1.40;;
16854;SDS011;8543;54.522;18.550;2023-05-16T05:43:55;1.70;;;1.30;;
16854;SDS011;8543;54.522;18.550;2023-05-16T05:46:21;1.50;;;1.30;;
16854;SDS011;8543;54.522;18.550;2023-05-16T05:48:46;1.40;;;1.30;;
16854;SDS011;8543;54.522;18.550;2023-05-16T05:51:12;2.70;;;1.50;;
16854;SDS011;8543;54.522;18.550;2023-05-16T05:53:38;1.90;;;1.30;;
16854;SDS011;8543;54.522;18.550;2023-05-16T05:56:05;1.90;;;1.50;;
16854;SDS011;8543;54.522;18.550;2023-05-16T05:58:30;2.30;;;1.50;;
16854;SDS011;8543;54.522;18.550;2023-05-16T06:00:56;1.70;;;1.40;;
16854;SDS011;8543;54.522;18.550;2023-05-16T06:03:21;4.00;;;1.70;;
16854;SDS011;8543;54.522;18.550;2023-05-16T06:05:47;2.40;;;1.60;;
16854;SDS011;8543;54.522;18.550;2023-05-16T06:08:12;2.10;;;1.70;;
16854;SDS011;8543;54.522;18.550;2023-05-16T06:10:38;2.00;;;1.50;;
16854;SDS011;8543;54.522;18.550;2023-05-16T06:13:03;2.40;;;1.70;;
16854;SDS011;8543;54.522;18.550;2023-05-16T06:15:29;1.80;;;1.60;;
16854;SDS011;8543;54.522;18.550;2023-05-16T06:17:54;2.40;;;1.80;;
16854;SDS011;8543;54.522;18.550;2023-05-16T06:20:20;2.60;;;1.70;;
16854;SDS011;8543;54.522;18.550;2023-05-16T06:22:45;2.20;;;1.70;;
16854;SDS011;8543;54.522;18.550;2023-05-16T06:25:10;2.80;;;1.80;;
16854;SDS011;8543;54.522;18.550;2023-05-16T06:27:36;3.20;;;1.70;;
16854;SDS011;8543;54.522;18.550;2023-05-16T06:30:02;2.90;;;1.70;;
16854;SDS011;8543;54.522;18.550;2023-05-16T06:32:27;1.90;;;1.60;;
16854;SDS011;8543;54.522;18.550;2023-05-16T06:34:53;2.80;;;1.80;;
16854;SDS011;8543;54.522;18.550;2023-05-16T06:37:19;2.10;;;1.60;;
16854;SDS011;8543;54.522;18.550;2023-05-16T06:39:44;2.40;;;1.80;;
16854;SDS011;8543;54.522;18.550;2023-05-16T06:42:09;2.40;;;1.80;;
16854;SDS011;8543;54.522;18.550;2023-05-16T06:44:35;3.00;;;1.90;;
16854;SDS011;8543;54.522;18.550;2023-05-16T06:47:00;2.50;;;1.90;;
16854;SDS011;8543;54.522;18.550;2023-05-16T06:49:26;2.90;;;2.00;;
16854;SDS011;8543;54.522;18.550;2023-05-16T06:51:51;2.60;;;1.60;;
16854;SDS011;8543;54.522;18.550;2023-05-16T06:54:17;2.70;;;2.00;;
16854;SDS011;8543;54.522;18.550;2023-05-16T06:56:43;4.20;;;2.20;;
16854;SDS011;8543;54.522;18.550;2023-05-16T06:59:18;5.80;;;2.80;;
16854;SDS011;8543;54.522;18.550;2023-05-16T07:01:44;4.60;;;2.70;;
16854;SDS011;8543;54.522;18.550;2023-05-16T07:04:09;3.70;;;2.90;;
16854;SDS011;8543;54.522;18.550;2023-05-16T07:06:35;3.60;;;2.60;;
16854;SDS011;8543;54.522;18.550;2023-05-16T07:09:00;4.00;;;2.70;;
16854;SDS011;8543;54.522;18.550;2023-05-16T07:11:26;4.00;;;3.00;;
16854;SDS011;8543;54.522;18.550;2023-05-16T07:13:51;4.60;;;3.10;;
16854;SDS011;8543;54.522;18.550;2023-05-16T07:16:17;4.40;;;3.30;;
16854;SDS011;8543;54.522;18.550;2023-05-16T07:18:42;4.30;;;2.80;;
16854;SDS011;8543;54.522;18.550;2023-05-16T07:21:08;4.60;;;2.80;;
16854;SDS011;8543;54.522;18.550;2023-05-16T07:23:33;4.90;;;2.30;;
16854;SDS011;8543;54.522;18.550;2023-05-16T07:25:59;3.20;;;2.10;;
16854;SDS011;8543;54.522;18.550;2023-05-16T07:28:24;4.30;;;2.00;;
16854;SDS011;8543;54.522;18.550;2023-05-16T07:30:50;3.00;;;2.00;;
16854;SDS011;8543;54.522;18.550;2023-05-16T07:33:15;3.00;;;2.00;;
16854;SDS011;8543;54.522;18.550;2023-05-16T07:35:41;2.60;;;1.80;;
16854;SDS011;8543;54.522;18.550;2023-05-16T07:38:06;2.40;;;1.70;;
16854;SDS011;8543;54.522;18.550;2023-05-16T07:40:32;3.40;;;1.90;;
16854;SDS011;8543;54.522;18.550;2023-05-16T07:42:57;2.40;;;1.80;;
16854;SDS011;8543;54.522;18.550;2023-05-16T07:45:23;3.90;;;2.20;;
16854;SDS011;8543;54.522;18.550;2023-05-16T07:47:49;4.60;;;2.20;;
16854;SDS011;8543;54.522;18.550;2023-05-16T07:50:14;3.70;;;2.40;;
16854;SDS011;8543;54.522;18.550;2023-05-16T07:52:42;3.70;;;2.60;;
16854;SDS011;8543;54.522;18.550;2023-05-16T07:55:08;4.80;;;3.00;;
16854;SDS011;8543;54.522;18.550;2023-05-16T07:57:33;4.20;;;3.00;;
16854;SDS011;8543;54.522;18.550;2023-05-16T07:59:59;5.70;;;3.00;;
16854;SDS011;8543;54.522;18.550;2023-05-16T08:02:24;4.90;;;3.30;;
16854;SDS011;8543;54.522;18.550;2023-05-16T08:04:54;4.40;;;3.50;;
16854;SDS011;8543;54.522;18.550;2023-05-16T08:07:20;5.10;;;3.80;;
16854;SDS011;8543;54.522;18.550;2023-05-16T08:09:46;5.20;;;4.00;;
16854;SDS011;8543;54.522;18.550;2023-05-16T08:12:14;6.40;;;4.80;;
16854;SDS011;8543;54.522;18.550;2023-05-16T08:14:39;5.70;;;4.50;;
16854;SDS011;8543;54.522;18.550;2023-05-16T08:17:05;6.70;;;5.00;;
16854;SDS011;8543;54.522;18.550;2023-05-16T08:19:31;8.90;;;6.20;;
16854;SDS011;8543;54.522;18.550;2023-05-16T08:21:57;7.50;;;5.50;;
16854;SDS011;8543;54.522;18.550;2023-05-16T08:24:23;8.50;;;5.60;;
16854;SDS011;8543;54.522;18.550;2023-05-16T08:26:48;7.10;;;6.10;;
16854;SDS011;8543;54.522;18.550;2023-05-16T08:29:14;6.90;;;5.70;;
16854;SDS011;8543;54.522;18.550;2023-05-16T08:31:40;6.30;;;5.20;;
16854;SDS011;8543;54.522;18.550;2023-05-16T08:34:05;6.80;;;5.50;;
16854;SDS011;8543;54.522;18.550;2023-05-16T08:36:31;8.90;;;5.40;;
16854;SDS011;8543;54.522;18.550;2023-05-16T08:38:58;7.80;;;5.50;;
16854;SDS011;8543;54.522;18.550;2023-05-16T08:41:24;6.60;;;5.30;;
16854;SDS011;8543;54.522;18.550;2023-05-16T08:43:50;6.20;;;4.90;;
16854;SDS011;8543;54.522;18.550;2023-05-16T08:46:20;6.80;;;4.80;;
16854;SDS011;8543;54.522;18.550;2023-05-16T08:48:46;6.70;;;4.40;;
16854;SDS011;8543;54.522;18.550;2023-05-16T08:51:16;7.40;;;4.60;;
16854;SDS011;8543;54.522;18.550;2023-05-16T08:53:44;6.60;;;4.80;;
16854;SDS011;8543;54.522;18.550;2023-05-16T08:56:11;6.80;;;4.70;;
16854;SDS011;8543;54.522;18.550;2023-05-16T08:58:37;6.10;;;5.00;;
16854;SDS011;8543;54.522;18.550;2023-05-16T09:01:03;6.40;;;4.30;;
16854;SDS011;8543;54.522;18.550;2023-05-16T09:03:33;6.80;;;4.00;;
16854;SDS011;8543;54.522;18.550;2023-05-16T09:06:03;4.80;;;3.00;;
16854;SDS011;8543;54.522;18.550;2023-05-16T09:08:30;4.40;;;3.30;;
16854;SDS011;8543;54.522;18.550;2023-05-16T09:10:56;5.50;;;3.20;;
16854;SDS011;8543;54.522;18.550;2023-05-16T09:13:21;5.20;;;3.10;;
16854;SDS011;8543;54.522;18.550;2023-05-16T09:16:03;5.60;;;3.20;;
16854;SDS011;8543;54.522;18.550;2023-05-16T09:18:43;6.40;;;3.30;;
16854;SDS011;8543;54.522;18.550;2023-05-16T09:21:09;4.40;;;3.20;;
16854;SDS011;8543;54.522;18.550;2023-05-16T09:23:35;4.90;;;3.50;;
16854;SDS011;8543;54.522;18.550;2023-05-16T09:26:01;4.70;;;3.40;;
16854;SDS011;8543;54.522;18.550;2023-05-16T09:28:29;4.30;;;3.50;;
16854;SDS011;8543;54.522;18.550;2023-05-16T09:30:54;5.10;;;2.90;;
16854;SDS011;8543;54.522;18.550;2023-05-16T09:33:23;6.90;;;3.10;;
16854;SDS011;8543;54.522;18.550;2023-05-16T09:36:00;4.80;;;3.10;;
16854;SDS011;8543;54.522;18.550;2023-05-16T09:38:26;5.00;;;3.10;;
16854;SDS011;8543;54.522;18.550;2023-05-16T09:40:52;5.70;;;3.10;;
16854;SDS011;8543;54.522;18.550;2023-05-16T09:43:20;5.90;;;3.60;;
16854;SDS011;8543;54.522;18.550;2023-05-16T09:45:50;5.30;;;3.40;;
16854;SDS011;8543;54.522;18.550;2023-05-16T09:48:16;8.70;;;2.90;;
16854;SDS011;8543;54.522;18.550;2023-05-16T09:50:49;5.70;;;3.30;;
16854;SDS011;8543;54.522;18.550;2023-05-16T09:53:17;4.80;;;3.10;;
16854;SDS011;8543;54.522;18.550;2023-05-16T09:56:11;5.80;;;3.30;;
16854;SDS011;8543;54.522;18.550;2023-05-16T10:01:04;4.70;;;3.00;;
16854;SDS011;8543;54.522;18.550;2023-05-16T10:03:31;5.70;;;3.10;;
16854;SDS011;8543;54.522;18.550;2023-05-16T10:05:58;4.20;;;3.60;;
16854;SDS011;8543;54.522;18.550;2023-05-16T10:08:25;4.90;;;3.60;;
16854;SDS011;8543;54.522;18.550;2023-05-16T10:10:51;6.50;;;3.80;;
16854;SDS011;8543;54.522;18.550;2023-05-16T10:13:19;5.60;;;3.80;;
16854;SDS011;8543;54.522;18.550;2023-05-16T10:15:47;5.50;;;3.80;;
16854;SDS011;8543;54.522;18.550;2023-05-16T10:18:13;5.80;;;3.80;;
16854;SDS011;8543;54.522;18.550;2023-05-16T10:20:40;6.10;;;4.00;;
16854;SDS011;8543;54.522;18.550;2023-05-16T10:23:07;5.40;;;3.60;;
16854;SDS011;8543;54.522;18.550;2023-05-16T10:25:35;4.60;;;3.80;;
16854;SDS011;8543;54.522;18.550;2023-05-16T10:28:05;7.30;;;3.50;;
16854;SDS011;8543;54.522;18.550;2023-05-16T10:30:32;4.10;;;3.10;;
16854;SDS011;8543;54.522;18.550;2023-05-16T10:32:58;6.00;;;3.70;;
16854;SDS011;8543;54.522;18.550;2023-05-16T10:35:25;4.80;;;3.70;;
16854;SDS011;8543;54.522;18.550;2023-05-16T10:37:51;5.40;;;3.40;;
16854;SDS011;8543;54.522;18.550;2023-05-16T10:40:17;6.20;;;3.60;;
16854;SDS011;8543;54.522;18.550;2023-05-16T10:42:53;4.50;;;3.60;;
16854;SDS011;8543;54.522;18.550;2023-05-16T10:45:22;5.30;;;3.90;;
16854;SDS011;8543;54.522;18.550;2023-05-16T10:47:52;9.20;;;3.80;;
16854;SDS011;8543;54.522;18.550;2023-05-16T10:50:37;7.00;;;4.30;;
16854;SDS011;8543;54.522;18.550;2023-05-16T10:55:39;5.20;;;3.60;;
16854;SDS011;8543;54.522;18.550;2023-05-16T10:58:04;4.50;;;4.00;;
16854;SDS011;8543;54.522;18.550;2023-05-16T11:00:30;5.20;;;3.80;;
16854;SDS011;8543;54.522;18.550;2023-05-16T11:03:05;5.90;;;4.20;;
16854;SDS011;8543;54.522;18.550;2023-05-16T11:05:30;5.80;;;4.00;;
16854;SDS011;8543;54.522;18.550;2023-05-16T11:08:04;5.70;;;4.30;;
16854;SDS011;8543;54.522;18.550;2023-05-16T11:10:30;5.80;;;4.50;;
16854;SDS011;8543;54.522;18.550;2023-05-16T11:13:01;6.90;;;4.80;;
16854;SDS011;8543;54.522;18.550;2023-05-16T11:15:30;6.60;;;4.50;;
16854;SDS011;8543;54.522;18.550;2023-05-16T11:18:09;6.90;;;5.10;;
16854;SDS011;8543;54.522;18.550;2023-05-16T11:20:39;6.40;;;5.30;;
16854;SDS011;8543;54.522;18.550;2023-05-16T11:25:40;6.10;;;5.10;;
16854;SDS011;8543;54.522;18.550;2023-05-16T11:28:07;6.70;;;6.00;;
16854;SDS011;8543;54.522;18.550;2023-05-16T11:30:32;7.10;;;5.60;;
16854;SDS011;8543;54.522;18.550;2023-05-16T11:32:58;7.30;;;5.80;;
16854;SDS011;8543;54.522;18.550;2023-05-16T11:35:23;8.30;;;6.50;;
16854;SDS011;8543;54.522;18.550;2023-05-16T11:37:49;8.40;;;6.10;;
16854;SDS011;8543;54.522;18.550;2023-05-16T11:40:15;8.50;;;6.70;;
16854;SDS011;8543;54.522;18.550;2023-05-16T11:42:44;7.80;;;6.30;;
16854;SDS011;8543;54.522;18.550;2023-05-16T11:45:13;8.80;;;7.40;;
16854;SDS011;8543;54.522;18.550;2023-05-16T11:47:40;10.30;;;6.90;;
16854;SDS011;8543;54.522;18.550;2023-05-16T11:50:09;8.50;;;6.70;;
16854;SDS011;8543;54.522;18.550;2023-05-16T11:52:35;11.60;;;8.40;;
16854;SDS011;8543;54.522;18.550;2023-05-16T11:55:03;10.50;;;7.90;;
16854;SDS011;8543;54.522;18.550;2023-05-16T11:57:30;10.50;;;7.70;;
16854;SDS011;8543;54.522;18.550;2023-05-16T12:00:03;9.10;;;7.50;;
16854;SDS011;8543;54.522;18.550;2023-05-16T12:02:35;9.40;;;7.10;;
16854;SDS011;8543;54.522;18.550;2023-05-16T12:05:05;10.50;;;7.60;;
16854;SDS011;8543;54.522;18.550;2023-05-16T12:07:33;11.20;;;7.20;;
16854;SDS011;8543;54.522;18.550;2023-05-16T12:10:03;10.30;;;8.00;;
16854;SDS011;8543;54.522;18.550;2023-05-16T12:12:29;9.90;;;8.20;;
16854;SDS011;8543;54.522;18.550;2023-05-16T12:14:55;10.90;;;8.60;;
16854;SDS011;8543;54.522;18.550;2023-05-16T12:17:20;10.20;;;8.70;;
16854;SDS011;8543;54.522;18.550;2023-05-16T12:19:46;12.20;;;8.50;;
16854;SDS011;8543;54.522;18.550;2023-05-16T12:22:15;10.70;;;8.60;;
16854;SDS011;8543;54.522;18.550;2023-05-16T12:24:42;13.70;;;8.90;;
16854;SDS011;8543;54.522;18.550;2023-05-16T12:27:08;13.80;;;8.30;;
16854;SDS011;8543;54.522;18.550;2023-05-16T12:29:33;11.50;;;8.30;;
16854;SDS011;8543;54.522;18.550;2023-05-16T12:31:59;12.10;;;8.70;;
16854;SDS011;8543;54.522;18.550;2023-05-16T12:34:27;12.40;;;7.90;;
16854;SDS011;8543;54.522;18.550;2023-05-16T12:36:53;10.50;;;8.40;;
16854;SDS011;8543;54.522;18.550;2023-05-16T12:39:18;11.30;;;7.80;;
16854;SDS011;8543;54.522;18.550;2023-05-16T12:41:45;9.60;;;7.90;;
16854;SDS011;8543;54.522;18.550;2023-05-16T12:44:14;11.50;;;8.70;;
16854;SDS011;8543;54.522;18.550;2023-05-16T12:46:45;16.10;;;9.10;;
16854;SDS011;8543;54.522;18.550;2023-05-16T12:49:13;11.30;;;7.80;;
16854;SDS011;8543;54.522;18.550;2023-05-16T12:51:38;11.50;;;7.30;;
16854;SDS011;8543;54.522;18.550;2023-05-16T12:54:08;13.30;;;8.10;;
16854;SDS011;8543;54.522;18.550;2023-05-16T12:56:36;13.80;;;7.70;;
16854;SDS011;8543;54.522;18.550;2023-05-16T12:59:02;13.20;;;7.10;;
16854;SDS011;8543;54.522;18.550;2023-05-16T13:01:27;10.90;;;7.40;;
16854;SDS011;8543;54.522;18.550;2023-05-16T13:03:53;10.00;;;7.50;;
16854;SDS011;8543;54.522;18.550;2023-05-16T13:06:18;9.80;;;6.80;;
16854;SDS011;8543;54.522;18.550;2023-05-16T13:08:44;10.40;;;7.10;;
16854;SDS011;8543;54.522;18.550;2023-05-16T13:11:10;11.40;;;6.90;;
16854;SDS011;8543;54.522;18.550;2023-05-16T13:13:35;11.20;;;6.30;;
16854;SDS011;8543;54.522;18.550;2023-05-16T13:16:01;10.70;;;6.40;;
16854;SDS011;8543;54.522;18.550;2023-05-16T13:18:27;10.10;;;7.20;;
16854;SDS011;8543;54.522;18.550;2023-05-16T13:20:52;11.80;;;7.70;;
16854;SDS011;8543;54.522;18.550;2023-05-16T13:23:18;8.70;;;6.50;;
16854;SDS011;8543;54.522;18.550;2023-05-16T13:25:43;10.00;;;6.10;;
16854;SDS011;8543;54.522;18.550;2023-05-16T13:28:09;9.40;;;5.80;;
16854;SDS011;8543;54.522;18.550;2023-05-16T13:30:35;8.30;;;5.90;;
16854;SDS011;8543;54.522;18.550;2023-05-16T13:33:01;8.80;;;5.70;;
16854;SDS011;8543;54.522;18.550;2023-05-16T13:35:26;7.40;;;5.70;;
16854;SDS011;8543;54.522;18.550;2023-05-16T13:37:52;9.50;;;5.60;;
16854;SDS011;8543;54.522;18.550;2023-05-16T13:40:18;9.00;;;6.00;;
16854;SDS011;8543;54.522;18.550;2023-05-16T13:42:43;9.50;;;5.50;;
16854;SDS011;8543;54.522;18.550;2023-05-16T13:45:08;9.40;;;5.70;;
16854;SDS011;8543;54.522;18.550;2023-05-16T13:47:34;9.20;;;5.60;;
16854;SDS011;8543;54.522;18.550;2023-05-16T13:50:00;9.00;;;5.30;;
16854;SDS011;8543;54.522;18.550;2023-05-16T13:52:33;9.50;;;5.50;;
16854;SDS011;8543;54.522;18.550;2023-05-16T13:54:58;10.80;;;5.90;;
16854;SDS011;8543;54.522;18.550;2023-05-16T13:57:24;8.90;;;5.30;;
16854;SDS011;8543;54.522;18.550;2023-05-16T13:59:51;10.60;;;6.10;;
16854;SDS011;8543;54.522;18.550;2023-05-16T14:02:17;11.00;;;5.70;;
16854;SDS011;8543;54.522;18.550;2023-05-16T14:04:42;8.00;;;5.50;;
16854;SDS011;8543;54.522;18.550;2023-05-16T14:07:08;8.40;;;5.80;;
16854;SDS011;8543;54.522;18.550;2023-05-16T14:09:33;8.50;;;5.50;;
16854;SDS011;8543;54.522;18.550;2023-05-16T14:11:59;9.20;;;5.50;;
16854;SDS011;8543;54.522;18.550;2023-05-16T14:14:26;9.80;;;5.90;;
16854;SDS011;8543;54.522;18.550;2023-05-16T14:16:52;8.10;;;5.40;;
16854;SDS011;8543;54.522;18.550;2023-05-16T14:19:17;9.20;;;5.90;;
16854;SDS011;8543;54.522;18.550;2023-05-16T14:21:43;7.90;;;5.20;;
16854;SDS011;8543;54.522;18.550;2023-05-16T14:24:08;8.70;;;4.90;;
16854;SDS011;8543;54.522;18.550;2023-05-16T14:26:33;8.00;;;4.90;;
16854;SDS011;8543;54.522;18.550;2023-05-16T14:28:59;8.30;;;5.20;;
16854;SDS011;8543;54.522;18.550;2023-05-16T14:31:24;7.90;;;4.70;;
16854;SDS011;8543;54.522;18.550;2023-05-16T14:33:50;10.00;;;5.10;;
16854;SDS011;8543;54.522;18.550;2023-05-16T14:36:16;7.70;;;5.20;;
16854;SDS011;8543;54.522;18.550;2023-05-16T14:38:41;8.80;;;5.00;;
16854;SDS011;8543;54.522;18.550;2023-05-16T14:41:07;7.40;;;4.70;;
16854;SDS011;8543;54.522;18.550;2023-05-16T14:43:32;6.90;;;4.50;;
16854;SDS011;8543;54.522;18.550;2023-05-16T14:45:58;6.80;;;4.70;;
16854;SDS011;8543;54.522;18.550;2023-05-16T14:48:23;9.70;;;5.70;;
16854;SDS011;8543;54.522;18.550;2023-05-16T14:50:48;8.70;;;5.80;;
16854;SDS011;8543;54.522;18.550;2023-05-16T14:53:14;9.60;;;6.20;;
16854;SDS011;8543;54.522;18.550;2023-05-16T14:55:40;10.00;;;5.80;;
16854;SDS011;8543;54.522;18.550;2023-05-16T14:58:05;12.70;;;7.50;;
16854;SDS011;8543;54.522;18.550;2023-05-16T15:00:31;10.10;;;6.40;;